sensor_id;sensor_type;location;lat;lon;timestamp;P1;durP1;ratioP1;P2;durP2;ratioP2
48026;SDS011;50714;49.208;5.364;2023-12-20T00:07:29;7.60;;;4.68;;
48026;SDS011;50714;49.208;5.364;2023-12-20T00:17:29;3.38;;;2.25;;
48026;SDS011;50714;49.208;5.364;2023-12-20T00:27:30;1.70;;;1.60;;
48026;SDS011;50714;49.208;5.364;2023-12-20T00:37:30;2.40;;;1.60;;
48026;SDS011;50714;49.208;5.364;2023-12-20T00:47:30;2.55;;;2.35;;
48026;SDS011;50714;49.208;5.364;2023-12-20T00:57:31;3.28;;;2.85;;
48026;SDS011;50714;49.208;5.364;2023-12-20T01:07:31;3.53;;;3.00;;
48026;SDS011;50714;49.208;5.364;2023-12-20T01:17:32;3.53;;;3.22;;
48026;SDS011;50714;49.208;5.364;2023-12-20T01:27:32;4.93;;;4.35;;
48026;SDS011;50714;49.208;5.364;2023-12-20T01:37:32;4.90;;;3.97;;
48026;SDS011;50714;49.208;5.364;2023-12-20T01:47:33;4.45;;;3.85;;
48026;SDS011;50714;49.208;5.364;2023-12-20T01:57:33;6.80;;;5.40;;
48026;SDS011;50714;49.208;5.364;2023-12-20T02:07:33;6.35;;;5.57;;
48026;SDS011;50714;49.208;5.364;2023-12-20T02:17:37;6.30;;;5.70;;
48026;SDS011;50714;49.208;5.364;2023-12-20T02:27:39;7.53;;;6.65;;
48026;SDS011;50714;49.208;5.364;2023-12-20T02:37:40;6.63;;;5.93;;
48026;SDS011;50714;49.208;5.364;2023-12-20T02:47:40;6.68;;;5.18;;
48026;SDS011;50714;49.208;5.364;2023-12-20T02:57:41;6.43;;;4.38;;
48026;SDS011;50714;49.208;5.364;2023-12-20T03:07:44;6.30;;;4.32;;
48026;SDS011;50714;49.208;5.364;2023-12-20T03:17:44;5.25;;;4.00;;
48026;SDS011;50714;49.208;5.364;2023-12-20T03:27:44;5.30;;;3.90;;
48026;SDS011;50714;49.208;5.364;2023-12-20T03:37:45;5.20;;;3.55;;
48026;SDS011;50714;49.208;5.364;2023-12-20T03:47:46;7.75;;;4.18;;
48026;SDS011;50714;49.208;5.364;2023-12-20T03:57:46;6.05;;;3.17;;
48026;SDS011;50714;49.208;5.364;2023-12-20T04:07:47;3.85;;;2.70;;
48026;SDS011;50714;49.208;5.364;2023-12-20T04:17:47;4.38;;;2.55;;
48026;SDS011;50714;49.208;5.364;2023-12-20T04:27:47;4.97;;;3.10;;
48026;SDS011;50714;49.208;5.364;2023-12-20T04:37:47;4.60;;;2.65;;
48026;SDS011;50714;49.208;5.364;2023-12-20T04:47:49;5.50;;;2.92;;
48026;SDS011;50714;49.208;5.364;2023-12-20T04:57:49;5.78;;;3.60;;
48026;SDS011;50714;49.208;5.364;2023-12-20T05:07:50;6.25;;;3.55;;
48026;SDS011;50714;49.208;5.364;2023-12-20T05:17:50;5.75;;;3.38;;
48026;SDS011;50714;49.208;5.364;2023-12-20T05:27:50;5.80;;;3.30;;
48026;SDS011;50714;49.208;5.364;2023-12-20T05:37:51;6.40;;;3.45;;
48026;SDS011;50714;49.208;5.364;2023-12-20T05:47:51;5.75;;;3.60;;
48026;SDS011;50714;49.208;5.364;2023-12-20T05:57:51;6.45;;;3.83;;
48026;SDS011;50714;49.208;5.364;2023-12-20T06:07:52;5.75;;;3.42;;
48026;SDS011;50714;49.208;5.364;2023-12-20T06:17:52;5.72;;;3.55;;
48026;SDS011;50714;49.208;5.364;2023-12-20T06:27:52;5.93;;;3.45;;
48026;SDS011;50714;49.208;5.364;2023-12-20T06:37:53;5.65;;;3.30;;
48026;SDS011;50714;49.208;5.364;2023-12-20T06:47:53;5.68;;;3.30;;
48026;SDS011;50714;49.208;5.364;2023-12-20T06:57:54;5.95;;;3.03;;
48026;SDS011;50714;49.208;5.364;2023-12-20T07:07:54;5.32;;;3.30;;
48026;SDS011;50714;49.208;5.364;2023-12-20T07:17:55;6.93;;;3.88;;
48026;SDS011;50714;49.208;5.364;2023-12-20T07:27:55;6.97;;;3.33;;
48026;SDS011;50714;49.208;5.364;2023-12-20T07:37:55;5.22;;;2.83;;
48026;SDS011;50714;49.208;5.364;2023-12-20T07:47:56;6.82;;;3.67;;
48026;SDS011;50714;49.208;5.364;2023-12-20T07:57:57;5.88;;;3.47;;
48026;SDS011;50714;49.208;5.364;2023-12-20T08:07:58;6.15;;;3.38;;
48026;SDS011;50714;49.208;5.364;2023-12-20T08:17:58;7.27;;;4.37;;
48026;SDS011;50714;49.208;5.364;2023-12-20T08:27:59;6.35;;;3.65;;
48026;SDS011;50714;49.208;5.364;2023-12-20T08:37:59;9.77;;;5.45;;
48026;SDS011;50714;49.208;5.364;2023-12-20T08:47:59;8.15;;;5.18;;
48026;SDS011;50714;49.208;5.364;2023-12-20T08:58:00;7.25;;;4.35;;
48026;SDS011;50714;49.208;5.364;2023-12-20T09:08:00;6.22;;;3.45;;
48026;SDS011;50714;49.208;5.364;2023-12-20T09:18:00;6.45;;;3.58;;
48026;SDS011;50714;49.208;5.364;2023-12-20T09:28:01;7.22;;;3.10;;
48026;SDS011;50714;49.208;5.364;2023-12-20T09:38:01;5.97;;;3.30;;
48026;SDS011;50714;49.208;5.364;2023-12-20T09:48:02;6.05;;;3.55;;
48026;SDS011;50714;49.208;5.364;2023-12-20T09:58:04;10.73;;;4.43;;
48026;SDS011;50714;49.208;5.364;2023-12-20T10:08:05;7.30;;;4.10;;
48026;SDS011;50714;49.208;5.364;2023-12-20T10:18:06;9.05;;;5.72;;
48026;SDS011;50714;49.208;5.364;2023-12-20T10:38:21;11.70;;;7.53;;
48026;SDS011;50714;49.208;5.364;2023-12-20T10:48:22;11.82;;;7.25;;
48026;SDS011;50714;49.208;5.364;2023-12-20T10:58:28;10.40;;;6.53;;
48026;SDS011;50714;49.208;5.364;2023-12-20T11:18:30;6.25;;;2.70;;
48026;SDS011;50714;49.208;5.364;2023-12-20T11:28:30;6.97;;;3.17;;
48026;SDS011;50714;49.208;5.364;2023-12-20T11:38:37;6.65;;;3.92;;
48026;SDS011;50714;49.208;5.364;2023-12-20T11:48:38;6.38;;;5.25;;
48026;SDS011;50714;49.208;5.364;2023-12-20T11:58:40;6.43;;;2.90;;
48026;SDS011;50714;49.208;5.364;2023-12-20T12:08:41;5.65;;;2.50;;
48026;SDS011;50714;49.208;5.364;2023-12-20T12:18:42;5.40;;;2.40;;
48026;SDS011;50714;49.208;5.364;2023-12-20T12:28:43;8.35;;;2.72;;
48026;SDS011;50714;49.208;5.364;2023-12-20T12:38:44;7.20;;;2.92;;
48026;SDS011;50714;49.208;5.364;2023-12-20T12:48:44;17.10;;;10.75;;
48026;SDS011;50714;49.208;5.364;2023-12-20T12:58:45;17.42;;;8.73;;
48026;SDS011;50714;49.208;5.364;2023-12-20T13:08:45;9.43;;;4.03;;
48026;SDS011;50714;49.208;5.364;2023-12-20T13:18:46;7.10;;;3.63;;
48026;SDS011;50714;49.208;5.364;2023-12-20T13:28:46;10.27;;;4.93;;
48026;SDS011;50714;49.208;5.364;2023-12-20T13:38:46;11.20;;;5.68;;
48026;SDS011;50714;49.208;5.364;2023-12-20T13:48:47;8.05;;;4.32;;
48026;SDS011;50714;49.208;5.364;2023-12-20T13:58:47;7.22;;;4.00;;
48026;SDS011;50714;49.208;5.364;2023-12-20T14:08:47;7.28;;;3.45;;
48026;SDS011;50714;49.208;5.364;2023-12-20T14:18:48;6.70;;;3.10;;
48026;SDS011;50714;49.208;5.364;2023-12-20T14:28:48;5.85;;;2.70;;
48026;SDS011;50714;49.208;5.364;2023-12-20T14:38:49;6.57;;;2.88;;
48026;SDS011;50714;49.208;5.364;2023-12-20T14:48:50;6.20;;;3.25;;
48026;SDS011;50714;49.208;5.364;2023-12-20T14:58:50;6.97;;;3.10;;
48026;SDS011;50714;49.208;5.364;2023-12-20T15:08:50;7.70;;;4.30;;
48026;SDS011;50714;49.208;5.364;2023-12-20T15:18:52;8.90;;;5.03;;
48026;SDS011;50714;49.208;5.364;2023-12-20T15:28:53;8.13;;;4.22;;
48026;SDS011;50714;49.208;5.364;2023-12-20T15:38:54;10.35;;;7.13;;
48026;SDS011;50714;49.208;5.364;2023-12-20T15:48:54;10.18;;;4.47;;
48026;SDS011;50714;49.208;5.364;2023-12-20T15:58:54;7.78;;;3.42;;
48026;SDS011;50714;49.208;5.364;2023-12-20T16:08:57;5.28;;;3.25;;
48026;SDS011;50714;49.208;5.364;2023-12-20T16:18:57;5.47;;;3.00;;
48026;SDS011;50714;49.208;5.364;2023-12-20T16:28:58;6.68;;;4.35;;
48026;SDS011;50714;49.208;5.364;2023-12-20T16:38:58;7.03;;;3.97;;
48026;SDS011;50714;49.208;5.364;2023-12-20T16:48:58;10.85;;;6.25;;
48026;SDS011;50714;49.208;5.364;2023-12-20T16:58:59;6.18;;;3.92;;
48026;SDS011;50714;49.208;5.364;2023-12-20T17:08:59;8.95;;;5.00;;
48026;SDS011;50714;49.208;5.364;2023-12-20T17:18:59;7.45;;;5.22;;
48026;SDS011;50714;49.208;5.364;2023-12-20T17:29:02;9.13;;;6.20;;
48026;SDS011;50714;49.208;5.364;2023-12-20T17:39:02;8.63;;;5.50;;
48026;SDS011;50714;49.208;5.364;2023-12-20T17:49:03;9.30;;;5.60;;
48026;SDS011;50714;49.208;5.364;2023-12-20T17:59:04;7.70;;;5.43;;
48026;SDS011;50714;49.208;5.364;2023-12-20T18:09:04;8.65;;;6.55;;
48026;SDS011;50714;49.208;5.364;2023-12-20T18:19:04;9.20;;;5.00;;
48026;SDS011;50714;49.208;5.364;2023-12-20T18:29:05;6.85;;;5.05;;
48026;SDS011;50714;49.208;5.364;2023-12-20T18:39:05;30.00;;;17.58;;
48026;SDS011;50714;49.208;5.364;2023-12-20T18:49:06;25.58;;;14.50;;
48026;SDS011;50714;49.208;5.364;2023-12-20T18:59:07;22.65;;;14.35;;
48026;SDS011;50714;49.208;5.364;2023-12-20T19:09:07;15.82;;;10.70;;
48026;SDS011;50714;49.208;5.364;2023-12-20T19:19:08;16.58;;;10.90;;
48026;SDS011;50714;49.208;5.364;2023-12-20T19:29:09;9.75;;;6.80;;
48026;SDS011;50714;49.208;5.364;2023-12-20T19:39:09;7.32;;;4.28;;
48026;SDS011;50714;49.208;5.364;2023-12-20T19:49:10;5.45;;;3.25;;
48026;SDS011;50714;49.208;5.364;2023-12-20T19:59:10;4.43;;;2.70;;
48026;SDS011;50714;49.208;5.364;2023-12-20T20:09:10;5.75;;;3.72;;
48026;SDS011;50714;49.208;5.364;2023-12-20T20:19:11;6.55;;;3.97;;
48026;SDS011;50714;49.208;5.364;2023-12-20T20:29:11;4.70;;;3.00;;
48026;SDS011;50714;49.208;5.364;2023-12-20T20:39:11;6.47;;;5.00;;
48026;SDS011;50714;49.208;5.364;2023-12-20T20:49:13;5.13;;;4.00;;
48026;SDS011;50714;49.208;5.364;2023-12-20T20:59:15;4.70;;;3.13;;
48026;SDS011;50714;49.208;5.364;2023-12-20T21:09:16;3.83;;;3.42;;
48026;SDS011;50714;49.208;5.364;2023-12-20T21:19:16;5.97;;;4.07;;
48026;SDS011;50714;49.208;5.364;2023-12-20T21:29:16;10.57;;;7.88;;
48026;SDS011;50714;49.208;5.364;2023-12-20T21:39:17;7.78;;;6.40;;
48026;SDS011;50714;49.208;5.364;2023-12-20T21:49:19;6.30;;;5.10;;
48026;SDS011;50714;49.208;5.364;2023-12-20T21:59:19;5.30;;;4.00;;
48026;SDS011;50714;49.208;5.364;2023-12-20T22:09:22;6.65;;;4.93;;
48026;SDS011;50714;49.208;5.364;2023-12-20T22:19:22;8.35;;;5.90;;
48026;SDS011;50714;49.208;5.364;2023-12-20T22:29:22;4.60;;;3.10;;
48026;SDS011;50714;49.208;5.364;2023-12-20T22:39:25;3.47;;;2.70;;
48026;SDS011;50714;49.208;5.364;2023-12-20T22:49:26;3.25;;;2.45;;
48026;SDS011;50714;49.208;5.364;2023-12-20T22:59:26;3.75;;;3.35;;
48026;SDS011;50714;49.208;5.364;2023-12-20T23:09:26;5.00;;;4.10;;
48026;SDS011;50714;49.208;5.364;2023-12-20T23:19:26;5.13;;;3.53;;
48026;SDS011;50714;49.208;5.364;2023-12-20T23:29:29;4.38;;;3.40;;
48026;SDS011;50714;49.208;5.364;2023-12-20T23:39:29;4.05;;;3.17;;
48026;SDS011;50714;49.208;5.364;2023-12-20T23:49:29;4.47;;;3.10;;
48026;SDS011;50714;49.208;5.364;2023-12-20T23:59:30;3.30;;;2.50;;
